sensor_id;sensor_type;location;lat;lon;timestamp;P1;durP1;ratioP1;P2;durP2;ratioP2
10343;SDS011;5217;43.960;10.954;2023-06-22T00:00:40;3.13;;;2.92;;
10343;SDS011;5217;43.960;10.954;2023-06-22T00:03:09;3.95;;;2.97;;
10343;SDS011;5217;43.960;10.954;2023-06-22T00:05:39;3.92;;;3.25;;
10343;SDS011;5217;43.960;10.954;2023-06-22T00:08:07;3.20;;;2.70;;
10343;SDS011;5217;43.960;10.954;2023-06-22T00:10:35;2.88;;;2.67;;
10343;SDS011;5217;43.960;10.954;2023-06-22T00:13:04;2.95;;;2.75;;
10343;SDS011;5217;43.960;10.954;2023-06-22T00:15:33;3.25;;;2.95;;
10343;SDS011;5217;43.960;10.954;2023-06-22T00:18:01;3.55;;;3.03;;
10343;SDS011;5217;43.960;10.954;2023-06-22T00:20:30;4.20;;;2.90;;
10343;SDS011;5217;43.960;10.954;2023-06-22T00:23:00;4.10;;;3.05;;
10343;SDS011;5217;43.960;10.954;2023-06-22T00:25:29;3.30;;;3.00;;
10343;SDS011;5217;43.960;10.954;2023-06-22T00:27:58;4.20;;;2.80;;
10343;SDS011;5217;43.960;10.954;2023-06-22T00:30:26;3.30;;;3.00;;
10343;SDS011;5217;43.960;10.954;2023-06-22T00:32:55;3.25;;;2.95;;
10343;SDS011;5217;43.960;10.954;2023-06-22T00:35:23;4.05;;;3.00;;
10343;SDS011;5217;43.960;10.954;2023-06-22T00:37:56;3.75;;;3.05;;
10343;SDS011;5217;43.960;10.954;2023-06-22T00:40:30;3.10;;;2.80;;
10343;SDS011;5217;43.960;10.954;2023-06-22T00:42:59;3.45;;;2.80;;
10343;SDS011;5217;43.960;10.954;2023-06-22T00:45:28;3.15;;;2.65;;
10343;SDS011;5217;43.960;10.954;2023-06-22T00:47:56;3.92;;;2.75;;
10343;SDS011;5217;43.960;10.954;2023-06-22T00:50:26;3.30;;;3.00;;
10343;SDS011;5217;43.960;10.954;2023-06-22T00:53:00;3.90;;;3.25;;
10343;SDS011;5217;43.960;10.954;2023-06-22T00:55:37;4.45;;;2.90;;
10343;SDS011;5217;43.960;10.954;2023-06-22T00:58:10;3.60;;;3.30;;
10343;SDS011;5217;43.960;10.954;2023-06-22T01:00:39;2.72;;;2.53;;
10343;SDS011;5217;43.960;10.954;2023-06-22T01:03:08;3.33;;;2.83;;
10343;SDS011;5217;43.960;10.954;2023-06-22T01:05:37;3.95;;;2.90;;
10343;SDS011;5217;43.960;10.954;2023-06-22T01:08:19;2.97;;;2.78;;
10343;SDS011;5217;43.960;10.954;2023-06-22T01:11:00;3.25;;;2.95;;
10343;SDS011;5217;43.960;10.954;2023-06-22T01:13:35;3.45;;;3.10;;
10343;SDS011;5217;43.960;10.954;2023-06-22T01:16:10;3.28;;;2.85;;
10343;SDS011;5217;43.960;10.954;2023-06-22T01:18:43;3.38;;;2.88;;
10343;SDS011;5217;43.960;10.954;2023-06-22T01:21:13;5.15;;;2.83;;
10343;SDS011;5217;43.960;10.954;2023-06-22T01:23:50;4.30;;;2.95;;
10343;SDS011;5217;43.960;10.954;2023-06-22T01:26:36;4.07;;;3.10;;
10343;SDS011;5217;43.960;10.954;2023-06-22T01:29:09;3.55;;;2.85;;
10343;SDS011;5217;43.960;10.954;2023-06-22T01:31:40;5.25;;;3.25;;
10343;SDS011;5217;43.960;10.954;2023-06-22T01:34:11;3.30;;;3.00;;
10343;SDS011;5217;43.960;10.954;2023-06-22T01:36:41;3.63;;;2.40;;
10343;SDS011;5217;43.960;10.954;2023-06-22T01:39:10;2.70;;;2.50;;
10343;SDS011;5217;43.960;10.954;2023-06-22T01:41:40;2.97;;;2.67;;
10343;SDS011;5217;43.960;10.954;2023-06-22T01:44:11;3.63;;;2.83;;
10343;SDS011;5217;43.960;10.954;2023-06-22T01:46:40;3.50;;;2.97;;
10343;SDS011;5217;43.960;10.954;2023-06-22T01:49:09;3.20;;;2.90;;
10343;SDS011;5217;43.960;10.954;2023-06-22T01:51:37;3.17;;;2.88;;
10343;SDS011;5217;43.960;10.954;2023-06-22T01:54:06;2.78;;;2.55;;
10343;SDS011;5217;43.960;10.954;2023-06-22T01:56:35;3.45;;;3.10;;
10343;SDS011;5217;43.960;10.954;2023-06-22T01:59:05;4.10;;;2.88;;
10343;SDS011;5217;43.960;10.954;2023-06-22T02:01:42;3.20;;;2.90;;
10343;SDS011;5217;43.960;10.954;2023-06-22T02:04:18;3.45;;;3.03;;
10343;SDS011;5217;43.960;10.954;2023-06-22T02:06:49;4.50;;;3.10;;
10343;SDS011;5217;43.960;10.954;2023-06-22T02:09:22;4.25;;;2.80;;
10343;SDS011;5217;43.960;10.954;2023-06-22T02:11:52;2.80;;;2.50;;
10343;SDS011;5217;43.960;10.954;2023-06-22T02:14:24;3.67;;;2.90;;
10343;SDS011;5217;43.960;10.954;2023-06-22T02:16:55;3.00;;;2.70;;
10343;SDS011;5217;43.960;10.954;2023-06-22T02:19:26;3.65;;;2.60;;
10343;SDS011;5217;43.960;10.954;2023-06-22T02:21:59;3.20;;;2.70;;
10343;SDS011;5217;43.960;10.954;2023-06-22T02:24:28;3.25;;;2.50;;
10343;SDS011;5217;43.960;10.954;2023-06-22T02:26:58;2.80;;;2.60;;
10343;SDS011;5217;43.960;10.954;2023-06-22T02:29:27;2.55;;;2.35;;
10343;SDS011;5217;43.960;10.954;2023-06-22T02:31:56;3.92;;;2.78;;
10343;SDS011;5217;43.960;10.954;2023-06-22T02:34:25;3.22;;;2.92;;
10343;SDS011;5217;43.960;10.954;2023-06-22T02:36:53;4.65;;;2.67;;
10343;SDS011;5217;43.960;10.954;2023-06-22T02:39:22;2.80;;;2.60;;
10343;SDS011;5217;43.960;10.954;2023-06-22T02:41:52;3.17;;;2.88;;
10343;SDS011;5217;43.960;10.954;2023-06-22T02:44:21;3.17;;;2.80;;
10343;SDS011;5217;43.960;10.954;2023-06-22T02:46:49;2.92;;;2.72;;
10343;SDS011;5217;43.960;10.954;2023-06-22T02:49:19;2.78;;;2.58;;
10343;SDS011;5217;43.960;10.954;2023-06-22T02:51:48;4.60;;;2.83;;
10343;SDS011;5217;43.960;10.954;2023-06-22T02:54:17;3.65;;;2.88;;
10343;SDS011;5217;43.960;10.954;2023-06-22T02:56:46;3.55;;;2.70;;
10343;SDS011;5217;43.960;10.954;2023-06-22T02:59:17;2.70;;;2.50;;
10343;SDS011;5217;43.960;10.954;2023-06-22T03:01:50;2.75;;;2.55;;
10343;SDS011;5217;43.960;10.954;2023-06-22T03:04:20;3.05;;;2.75;;
10343;SDS011;5217;43.960;10.954;2023-06-22T03:06:48;3.10;;;2.80;;
10343;SDS011;5217;43.960;10.954;2023-06-22T03:09:17;2.90;;;2.65;;
10343;SDS011;5217;43.960;10.954;2023-06-22T03:11:46;3.28;;;2.97;;
10343;SDS011;5217;43.960;10.954;2023-06-22T03:14:15;2.70;;;2.50;;
10343;SDS011;5217;43.960;10.954;2023-06-22T03:16:44;4.20;;;2.85;;
10343;SDS011;5217;43.960;10.954;2023-06-22T03:19:12;2.60;;;2.40;;
10343;SDS011;5217;43.960;10.954;2023-06-22T03:21:42;2.85;;;2.60;;
10343;SDS011;5217;43.960;10.954;2023-06-22T03:24:11;2.95;;;2.72;;
10343;SDS011;5217;43.960;10.954;2023-06-22T03:26:39;4.38;;;3.17;;
10343;SDS011;5217;43.960;10.954;2023-06-22T03:29:07;3.53;;;2.53;;
10343;SDS011;5217;43.960;10.954;2023-06-22T03:31:36;3.30;;;3.00;;
10343;SDS011;5217;43.960;10.954;2023-06-22T03:34:04;4.40;;;3.05;;
10343;SDS011;5217;43.960;10.954;2023-06-22T03:36:33;2.78;;;2.55;;
10343;SDS011;5217;43.960;10.954;2023-06-22T03:39:02;3.55;;;2.72;;
10343;SDS011;5217;43.960;10.954;2023-06-22T03:41:31;3.95;;;2.83;;
10343;SDS011;5217;43.960;10.954;2023-06-22T03:43:59;3.08;;;2.75;;
10343;SDS011;5217;43.960;10.954;2023-06-22T03:46:28;3.13;;;2.83;;
10343;SDS011;5217;43.960;10.954;2023-06-22T03:48:56;3.22;;;2.92;;
10343;SDS011;5217;43.960;10.954;2023-06-22T03:51:24;3.00;;;2.80;;
10343;SDS011;5217;43.960;10.954;2023-06-22T03:53:53;3.08;;;2.72;;
10343;SDS011;5217;43.960;10.954;2023-06-22T03:56:22;5.18;;;3.20;;
10343;SDS011;5217;43.960;10.954;2023-06-22T03:58:51;3.13;;;2.83;;
10343;SDS011;5217;43.960;10.954;2023-06-22T04:01:19;3.17;;;2.90;;
10343;SDS011;5217;43.960;10.954;2023-06-22T04:03:48;2.97;;;2.75;;
10343;SDS011;5217;43.960;10.954;2023-06-22T04:06:16;2.90;;;2.70;;
10343;SDS011;5217;43.960;10.954;2023-06-22T04:08:45;3.50;;;2.88;;
10343;SDS011;5217;43.960;10.954;2023-06-22T04:11:17;2.90;;;2.70;;
10343;SDS011;5217;43.960;10.954;2023-06-22T04:13:47;3.70;;;3.30;;
10343;SDS011;5217;43.960;10.954;2023-06-22T04:16:17;7.50;;;3.63;;
10343;SDS011;5217;43.960;10.954;2023-06-22T04:18:46;3.47;;;3.17;;
10343;SDS011;5217;43.960;10.954;2023-06-22T04:21:14;3.17;;;2.78;;
10343;SDS011;5217;43.960;10.954;2023-06-22T04:23:42;3.22;;;2.92;;
10343;SDS011;5217;43.960;10.954;2023-06-22T04:26:12;3.47;;;3.00;;
10343;SDS011;5217;43.960;10.954;2023-06-22T04:28:41;3.30;;;2.92;;
10343;SDS011;5217;43.960;10.954;2023-06-22T04:31:11;3.00;;;2.80;;
10343;SDS011;5217;43.960;10.954;2023-06-22T04:33:39;3.83;;;3.20;;
10343;SDS011;5217;43.960;10.954;2023-06-22T04:36:08;4.43;;;3.28;;
10343;SDS011;5217;43.960;10.954;2023-06-22T04:38:39;3.17;;;2.90;;
10343;SDS011;5217;43.960;10.954;2023-06-22T04:41:08;3.10;;;2.78;;
10343;SDS011;5217;43.960;10.954;2023-06-22T04:43:50;4.60;;;3.05;;
10343;SDS011;5217;43.960;10.954;2023-06-22T04:46:22;3.10;;;2.90;;
10343;SDS011;5217;43.960;10.954;2023-06-22T04:48:50;3.40;;;3.10;;
10343;SDS011;5217;43.960;10.954;2023-06-22T04:51:18;3.08;;;2.45;;
10343;SDS011;5217;43.960;10.954;2023-06-22T04:53:48;3.42;;;3.10;;
10343;SDS011;5217;43.960;10.954;2023-06-22T04:56:16;5.07;;;3.28;;
10343;SDS011;5217;43.960;10.954;2023-06-22T04:58:47;3.10;;;2.80;;
10343;SDS011;5217;43.960;10.954;2023-06-22T05:01:18;4.32;;;3.00;;
10343;SDS011;5217;43.960;10.954;2023-06-22T05:03:49;2.88;;;2.67;;
10343;SDS011;5217;43.960;10.954;2023-06-22T05:06:24;3.30;;;3.00;;
10343;SDS011;5217;43.960;10.954;2023-06-22T05:08:52;3.90;;;2.72;;
10343;SDS011;5217;43.960;10.954;2023-06-22T05:11:24;6.20;;;3.03;;
10343;SDS011;5217;43.960;10.954;2023-06-22T05:13:53;29.38;;;4.18;;
10343;SDS011;5217;43.960;10.954;2023-06-22T05:16:22;10.05;;;3.17;;
10343;SDS011;5217;43.960;10.954;2023-06-22T05:18:53;16.70;;;3.38;;
10343;SDS011;5217;43.960;10.954;2023-06-22T05:21:22;5.90;;;2.92;;
10343;SDS011;5217;43.960;10.954;2023-06-22T05:23:52;4.32;;;2.80;;
10343;SDS011;5217;43.960;10.954;2023-06-22T05:26:21;4.10;;;3.03;;
10343;SDS011;5217;43.960;10.954;2023-06-22T05:28:49;3.28;;;2.80;;
10343;SDS011;5217;43.960;10.954;2023-06-22T05:31:18;4.03;;;3.05;;
10343;SDS011;5217;43.960;10.954;2023-06-22T05:33:47;3.10;;;2.80;;
10343;SDS011;5217;43.960;10.954;2023-06-22T05:36:18;4.25;;;3.20;;
10343;SDS011;5217;43.960;10.954;2023-06-22T05:38:47;3.42;;;2.97;;
10343;SDS011;5217;43.960;10.954;2023-06-22T05:41:16;3.30;;;3.00;;
10343;SDS011;5217;43.960;10.954;2023-06-22T05:43:44;3.92;;;2.88;;
10343;SDS011;5217;43.960;10.954;2023-06-22T05:46:12;3.97;;;2.97;;
10343;SDS011;5217;43.960;10.954;2023-06-22T05:48:41;3.47;;;2.88;;
10343;SDS011;5217;43.960;10.954;2023-06-22T05:51:09;5.72;;;2.80;;
10343;SDS011;5217;43.960;10.954;2023-06-22T05:53:39;3.45;;;3.00;;
10343;SDS011;5217;43.960;10.954;2023-06-22T05:56:07;4.32;;;2.90;;
10343;SDS011;5217;43.960;10.954;2023-06-22T05:58:36;4.97;;;3.20;;
10343;SDS011;5217;43.960;10.954;2023-06-22T06:01:04;3.35;;;2.95;;
10343;SDS011;5217;43.960;10.954;2023-06-22T06:03:32;6.88;;;3.60;;
10343;SDS011;5217;43.960;10.954;2023-06-22T06:06:07;6.22;;;3.63;;
10343;SDS011;5217;43.960;10.954;2023-06-22T06:08:38;4.05;;;3.40;;
10343;SDS011;5217;43.960;10.954;2023-06-22T06:11:07;4.88;;;3.45;;
10343;SDS011;5217;43.960;10.954;2023-06-22T06:13:35;4.82;;;3.38;;
10343;SDS011;5217;43.960;10.954;2023-06-22T06:16:04;5.32;;;3.58;;
10343;SDS011;5217;43.960;10.954;2023-06-22T06:18:32;3.63;;;3.33;;
10343;SDS011;5217;43.960;10.954;2023-06-22T06:21:00;4.82;;;3.90;;
10343;SDS011;5217;43.960;10.954;2023-06-22T06:23:29;7.03;;;3.63;;
10343;SDS011;5217;43.960;10.954;2023-06-22T06:25:59;4.82;;;3.70;;
10343;SDS011;5217;43.960;10.954;2023-06-22T06:28:27;4.30;;;3.90;;
10343;SDS011;5217;43.960;10.954;2023-06-22T06:30:56;4.25;;;3.85;;
10343;SDS011;5217;43.960;10.954;2023-06-22T06:33:24;6.15;;;3.88;;
10343;SDS011;5217;43.960;10.954;2023-06-22T06:35:53;5.97;;;3.92;;
10343;SDS011;5217;43.960;10.954;2023-06-22T06:38:22;5.28;;;4.55;;
10343;SDS011;5217;43.960;10.954;2023-06-22T06:40:50;6.03;;;4.47;;
10343;SDS011;5217;43.960;10.954;2023-06-22T06:43:20;6.65;;;5.00;;
10343;SDS011;5217;43.960;10.954;2023-06-22T06:45:49;5.20;;;4.65;;
10343;SDS011;5217;43.960;10.954;2023-06-22T06:48:18;7.05;;;4.30;;
10343;SDS011;5217;43.960;10.954;2023-06-22T06:50:46;5.65;;;4.43;;
10343;SDS011;5217;43.960;10.954;2023-06-22T06:53:15;4.90;;;4.40;;
10343;SDS011;5217;43.960;10.954;2023-06-22T06:55:43;5.15;;;4.65;;
10343;SDS011;5217;43.960;10.954;2023-06-22T06:58:12;5.20;;;4.80;;
10343;SDS011;5217;43.960;10.954;2023-06-22T07:00:43;5.85;;;4.65;;
10343;SDS011;5217;43.960;10.954;2023-06-22T07:03:11;6.97;;;5.50;;
10343;SDS011;5217;43.960;10.954;2023-06-22T07:05:39;5.75;;;4.80;;
10343;SDS011;5217;43.960;10.954;2023-06-22T07:08:08;5.70;;;4.60;;
10343;SDS011;5217;43.960;10.954;2023-06-22T07:10:36;6.00;;;4.47;;
10343;SDS011;5217;43.960;10.954;2023-06-22T07:13:05;5.05;;;4.55;;
10343;SDS011;5217;43.960;10.954;2023-06-22T07:15:33;8.25;;;4.43;;
10343;SDS011;5217;43.960;10.954;2023-06-22T07:18:03;5.82;;;4.28;;
10343;SDS011;5217;43.960;10.954;2023-06-22T07:20:32;4.70;;;4.30;;
10343;SDS011;5217;43.960;10.954;2023-06-22T07:23:00;4.78;;;4.32;;
10343;SDS011;5217;43.960;10.954;2023-06-22T07:25:29;5.85;;;5.07;;
10343;SDS011;5217;43.960;10.954;2023-06-22T07:27:58;8.60;;;6.60;;
10343;SDS011;5217;43.960;10.954;2023-06-22T07:30:29;8.45;;;6.78;;
10343;SDS011;5217;43.960;10.954;2023-06-22T07:32:59;8.68;;;6.82;;
10343;SDS011;5217;43.960;10.954;2023-06-22T07:35:32;8.38;;;6.72;;
10343;SDS011;5217;43.960;10.954;2023-06-22T07:38:01;10.18;;;6.90;;
10343;SDS011;5217;43.960;10.954;2023-06-22T07:40:31;11.93;;;7.85;;
10343;SDS011;5217;43.960;10.954;2023-06-22T07:43:00;11.88;;;7.18;;
10343;SDS011;5217;43.960;10.954;2023-06-22T07:45:29;9.73;;;6.97;;
10343;SDS011;5217;43.960;10.954;2023-06-22T07:48:00;10.60;;;6.47;;
10343;SDS011;5217;43.960;10.954;2023-06-22T07:50:28;7.93;;;6.35;;
10343;SDS011;5217;43.960;10.954;2023-06-22T07:52:59;6.50;;;5.07;;
10343;SDS011;5217;43.960;10.954;2023-06-22T07:55:28;5.97;;;4.72;;
10343;SDS011;5217;43.960;10.954;2023-06-22T07:57:56;4.90;;;4.20;;
10343;SDS011;5217;43.960;10.954;2023-06-22T08:00:25;5.70;;;3.97;;
10343;SDS011;5217;43.960;10.954;2023-06-22T08:02:54;5.13;;;3.80;;
10343;SDS011;5217;43.960;10.954;2023-06-22T08:05:23;4.30;;;3.65;;
10343;SDS011;5217;43.960;10.954;2023-06-22T08:07:51;4.63;;;3.58;;
10343;SDS011;5217;43.960;10.954;2023-06-22T08:10:22;3.97;;;3.50;;
10343;SDS011;5217;43.960;10.954;2023-06-22T08:12:51;4.22;;;3.83;;
10343;SDS011;5217;43.960;10.954;2023-06-22T08:15:19;4.30;;;3.90;;
10343;SDS011;5217;43.960;10.954;2023-06-22T08:17:48;5.40;;;4.18;;
10343;SDS011;5217;43.960;10.954;2023-06-22T08:20:19;5.60;;;4.53;;
10343;SDS011;5217;43.960;10.954;2023-06-22T08:22:48;6.90;;;6.20;;
10343;SDS011;5217;43.960;10.954;2023-06-22T08:25:16;6.93;;;5.55;;
10343;SDS011;5217;43.960;10.954;2023-06-22T08:27:47;7.05;;;6.30;;
10343;SDS011;5217;43.960;10.954;2023-06-22T08:30:16;7.38;;;6.07;;
10343;SDS011;5217;43.960;10.954;2023-06-22T08:32:45;7.30;;;5.95;;
10343;SDS011;5217;43.960;10.954;2023-06-22T08:35:13;7.50;;;6.55;;
10343;SDS011;5217;43.960;10.954;2023-06-22T08:37:42;8.93;;;6.57;;
10343;SDS011;5217;43.960;10.954;2023-06-22T08:40:17;8.65;;;7.18;;
10343;SDS011;5217;43.960;10.954;2023-06-22T08:42:48;9.43;;;7.10;;
10343;SDS011;5217;43.960;10.954;2023-06-22T08:45:16;11.50;;;6.63;;
10343;SDS011;5217;43.960;10.954;2023-06-22T08:47:45;7.45;;;6.43;;
10343;SDS011;5217;43.960;10.954;2023-06-22T08:50:14;6.90;;;5.82;;
10343;SDS011;5217;43.960;10.954;2023-06-22T08:52:42;6.47;;;4.90;;
10343;SDS011;5217;43.960;10.954;2023-06-22T08:55:12;7.18;;;6.13;;
10343;SDS011;5217;43.960;10.954;2023-06-22T08:57:41;7.10;;;5.65;;
10343;SDS011;5217;43.960;10.954;2023-06-22T09:00:12;9.73;;;6.00;;
10343;SDS011;5217;43.960;10.954;2023-06-22T09:02:46;7.32;;;5.85;;
10343;SDS011;5217;43.960;10.954;2023-06-22T09:05:15;8.50;;;6.32;;
10343;SDS011;5217;43.960;10.954;2023-06-22T09:07:44;7.85;;;6.18;;
10343;SDS011;5217;43.960;10.954;2023-06-22T09:10:14;6.68;;;5.80;;
10343;SDS011;5217;43.960;10.954;2023-06-22T09:12:42;9.10;;;5.90;;
10343;SDS011;5217;43.960;10.954;2023-06-22T09:15:12;7.38;;;5.68;;
10343;SDS011;5217;43.960;10.954;2023-06-22T09:17:44;6.28;;;5.55;;
10343;SDS011;5217;43.960;10.954;2023-06-22T09:20:14;6.65;;;5.25;;
10343;SDS011;5217;43.960;10.954;2023-06-22T09:22:43;7.40;;;5.50;;
10343;SDS011;5217;43.960;10.954;2023-06-22T09:25:11;7.45;;;5.60;;
10343;SDS011;5217;43.960;10.954;2023-06-22T09:27:40;7.72;;;5.45;;
10343;SDS011;5217;43.960;10.954;2023-06-22T09:30:09;6.38;;;5.53;;
10343;SDS011;5217;43.960;10.954;2023-06-22T09:32:39;6.28;;;4.95;;
10343;SDS011;5217;43.960;10.954;2023-06-22T09:35:09;7.00;;;5.20;;
10343;SDS011;5217;43.960;10.954;2023-06-22T09:37:39;5.65;;;5.03;;
10343;SDS011;5217;43.960;10.954;2023-06-22T09:40:08;5.82;;;5.07;;
10343;SDS011;5217;43.960;10.954;2023-06-22T09:42:41;5.82;;;4.78;;
10343;SDS011;5217;43.960;10.954;2023-06-22T09:45:10;6.70;;;5.07;;
10343;SDS011;5217;43.960;10.954;2023-06-22T09:47:40;6.82;;;4.85;;
10343;SDS011;5217;43.960;10.954;2023-06-22T09:50:09;5.68;;;5.07;;
10343;SDS011;5217;43.960;10.954;2023-06-22T09:52:38;8.38;;;5.40;;
10343;SDS011;5217;43.960;10.954;2023-06-22T09:55:09;6.60;;;4.90;;
10343;SDS011;5217;43.960;10.954;2023-06-22T09:57:37;5.28;;;4.50;;
10343;SDS011;5217;43.960;10.954;2023-06-22T10:00:06;4.78;;;4.28;;
10343;SDS011;5217;43.960;10.954;2023-06-22T10:02:39;6.47;;;4.60;;
10343;SDS011;5217;43.960;10.954;2023-06-22T10:05:09;7.07;;;4.47;;
10343;SDS011;5217;43.960;10.954;2023-06-22T10:07:38;4.75;;;4.10;;
10343;SDS011;5217;43.960;10.954;2023-06-22T10:10:09;4.00;;;3.60;;
10343;SDS011;5217;43.960;10.954;2023-06-22T10:12:40;3.60;;;3.30;;
10343;SDS011;5217;43.960;10.954;2023-06-22T10:15:10;4.32;;;3.60;;
10343;SDS011;5217;43.960;10.954;2023-06-22T10:17:40;3.30;;;3.00;;
10343;SDS011;5217;43.960;10.954;2023-06-22T10:20:09;3.45;;;3.13;;
10343;SDS011;5217;43.960;10.954;2023-06-22T10:22:41;3.33;;;2.97;;
10343;SDS011;5217;43.960;10.954;2023-06-22T10:25:10;3.45;;;2.97;;
10343;SDS011;5217;43.960;10.954;2023-06-22T10:27:39;3.40;;;3.10;;
10343;SDS011;5217;43.960;10.954;2023-06-22T10:30:09;3.33;;;3.03;;
10343;SDS011;5217;43.960;10.954;2023-06-22T10:32:41;3.10;;;2.80;;
10343;SDS011;5217;43.960;10.954;2023-06-22T10:35:10;3.17;;;2.80;;
10343;SDS011;5217;43.960;10.954;2023-06-22T10:37:40;3.47;;;2.70;;
10343;SDS011;5217;43.960;10.954;2023-06-22T10:40:10;3.55;;;2.85;;
10343;SDS011;5217;43.960;10.954;2023-06-22T10:42:40;3.35;;;3.05;;
10343;SDS011;5217;43.960;10.954;2023-06-22T10:45:09;3.45;;;3.05;;
10343;SDS011;5217;43.960;10.954;2023-06-22T10:47:38;3.28;;;2.97;;
10343;SDS011;5217;43.960;10.954;2023-06-22T10:50:10;3.08;;;2.78;;
10343;SDS011;5217;43.960;10.954;2023-06-22T10:52:39;6.97;;;3.40;;
10343;SDS011;5217;43.960;10.954;2023-06-22T10:55:09;3.70;;;3.40;;
10343;SDS011;5217;43.960;10.954;2023-06-22T10:57:37;4.20;;;3.13;;
10343;SDS011;5217;43.960;10.954;2023-06-22T11:00:10;3.35;;;3.05;;
10343;SDS011;5217;43.960;10.954;2023-06-22T11:02:40;4.60;;;3.10;;
10343;SDS011;5217;43.960;10.954;2023-06-22T11:05:11;3.50;;;3.20;;
10343;SDS011;5217;43.960;10.954;2023-06-22T11:07:41;4.30;;;3.10;;
10343;SDS011;5217;43.960;10.954;2023-06-22T11:10:12;3.53;;;3.22;;
10343;SDS011;5217;43.960;10.954;2023-06-22T11:12:41;3.50;;;3.20;;
10343;SDS011;5217;43.960;10.954;2023-06-22T11:15:11;3.35;;;3.05;;
10343;SDS011;5217;43.960;10.954;2023-06-22T11:17:40;3.15;;;2.85;;
10343;SDS011;5217;43.960;10.954;2023-06-22T11:20:09;3.10;;;2.90;;
10343;SDS011;5217;43.960;10.954;2023-06-22T11:22:40;2.83;;;2.63;;
10343;SDS011;5217;43.960;10.954;2023-06-22T11:25:09;4.47;;;3.05;;
10343;SDS011;5217;43.960;10.954;2023-06-22T11:27:39;2.78;;;2.58;;
10343;SDS011;5217;43.960;10.954;2023-06-22T11:30:08;2.80;;;2.50;;
10343;SDS011;5217;43.960;10.954;2023-06-22T11:32:37;3.13;;;2.83;;
10343;SDS011;5217;43.960;10.954;2023-06-22T11:35:06;4.22;;;2.70;;
10343;SDS011;5217;43.960;10.954;2023-06-22T11:37:36;3.65;;;2.75;;
10343;SDS011;5217;43.960;10.954;2023-06-22T11:40:05;2.75;;;2.42;;
10343;SDS011;5217;43.960;10.954;2023-06-22T11:42:35;2.67;;;2.30;;
10343;SDS011;5217;43.960;10.954;2023-06-22T11:45:04;2.92;;;2.20;;
10343;SDS011;5217;43.960;10.954;2023-06-22T11:47:34;2.53;;;2.30;;
10343;SDS011;5217;43.960;10.954;2023-06-22T11:50:03;2.90;;;2.08;;
10343;SDS011;5217;43.960;10.954;2023-06-22T11:52:33;2.33;;;2.10;;
10343;SDS011;5217;43.960;10.954;2023-06-22T11:55:05;2.40;;;2.20;;
10343;SDS011;5217;43.960;10.954;2023-06-22T11:57:34;2.20;;;2.00;;
10343;SDS011;5217;43.960;10.954;2023-06-22T12:00:05;2.38;;;2.17;;
10343;SDS011;5217;43.960;10.954;2023-06-22T12:02:42;5.32;;;2.55;;
10343;SDS011;5217;43.960;10.954;2023-06-22T12:05:11;4.43;;;2.75;;
10343;SDS011;5217;43.960;10.954;2023-06-22T12:07:40;3.47;;;2.45;;
10343;SDS011;5217;43.960;10.954;2023-06-22T12:10:10;3.78;;;2.88;;
10343;SDS011;5217;43.960;10.954;2023-06-22T12:12:39;2.70;;;2.45;;
10343;SDS011;5217;43.960;10.954;2023-06-22T12:15:09;3.35;;;2.75;;
10343;SDS011;5217;43.960;10.954;2023-06-22T12:17:38;3.50;;;2.90;;
10343;SDS011;5217;43.960;10.954;2023-06-22T12:20:07;3.60;;;2.90;;
10343;SDS011;5217;43.960;10.954;2023-06-22T12:22:37;4.18;;;2.92;;
10343;SDS011;5217;43.960;10.954;2023-06-22T12:25:05;3.17;;;2.88;;
10343;SDS011;5217;43.960;10.954;2023-06-22T12:27:36;4.47;;;2.95;;
10343;SDS011;5217;43.960;10.954;2023-06-22T12:30:05;4.63;;;2.90;;
10343;SDS011;5217;43.960;10.954;2023-06-22T12:32:34;3.28;;;2.97;;
10343;SDS011;5217;43.960;10.954;2023-06-22T12:35:03;3.30;;;2.92;;
10343;SDS011;5217;43.960;10.954;2023-06-22T12:37:38;3.40;;;2.90;;
10343;SDS011;5217;43.960;10.954;2023-06-22T12:40:07;2.72;;;2.53;;
10343;SDS011;5217;43.960;10.954;2023-06-22T12:42:39;3.00;;;2.70;;
10343;SDS011;5217;43.960;10.954;2023-06-22T12:45:08;3.20;;;2.60;;
10343;SDS011;5217;43.960;10.954;2023-06-22T12:47:37;5.40;;;2.70;;
10343;SDS011;5217;43.960;10.954;2023-06-22T12:50:06;3.58;;;2.92;;
10343;SDS011;5217;43.960;10.954;2023-06-22T12:52:36;4.53;;;2.80;;
10343;SDS011;5217;43.960;10.954;2023-06-22T12:55:07;3.97;;;2.58;;
10343;SDS011;5217;43.960;10.954;2023-06-22T12:57:36;3.00;;;2.67;;
10343;SDS011;5217;43.960;10.954;2023-06-22T13:00:07;4.57;;;3.03;;
10343;SDS011;5217;43.960;10.954;2023-06-22T13:02:38;4.47;;;3.78;;
10343;SDS011;5217;43.960;10.954;2023-06-22T13:05:07;10.10;;;3.65;;
10343;SDS011;5217;43.960;10.954;2023-06-22T13:07:35;4.55;;;3.35;;
10343;SDS011;5217;43.960;10.954;2023-06-22T13:10:05;5.57;;;3.33;;
10343;SDS011;5217;43.960;10.954;2023-06-22T13:12:34;4.70;;;3.17;;
10343;SDS011;5217;43.960;10.954;2023-06-22T13:15:05;8.75;;;3.85;;
10343;SDS011;5217;43.960;10.954;2023-06-22T13:17:35;4.05;;;3.35;;
10343;SDS011;5217;43.960;10.954;2023-06-22T13:20:05;5.03;;;3.38;;
10343;SDS011;5217;43.960;10.954;2023-06-22T13:22:35;3.88;;;3.38;;
10343;SDS011;5217;43.960;10.954;2023-06-22T13:25:07;4.60;;;3.10;;
10343;SDS011;5217;43.960;10.954;2023-06-22T13:27:39;5.75;;;3.17;;
10343;SDS011;5217;43.960;10.954;2023-06-22T13:30:10;4.43;;;2.97;;
10343;SDS011;5217;43.960;10.954;2023-06-22T13:32:40;4.05;;;3.38;;
10343;SDS011;5217;43.960;10.954;2023-06-22T13:35:10;4.68;;;3.10;;
10343;SDS011;5217;43.960;10.954;2023-06-22T13:37:39;4.30;;;3.08;;
10343;SDS011;5217;43.960;10.954;2023-06-22T13:40:08;7.05;;;3.88;;
10343;SDS011;5217;43.960;10.954;2023-06-22T13:42:37;6.43;;;3.63;;
10343;SDS011;5217;43.960;10.954;2023-06-22T13:45:09;10.77;;;4.38;;
10343;SDS011;5217;43.960;10.954;2023-06-22T13:47:39;6.60;;;4.22;;
10343;SDS011;5217;43.960;10.954;2023-06-22T13:50:08;5.68;;;4.13;;
10343;SDS011;5217;43.960;10.954;2023-06-22T13:52:39;6.30;;;3.80;;
10343;SDS011;5217;43.960;10.954;2023-06-22T13:55:08;6.15;;;3.92;;
10343;SDS011;5217;43.960;10.954;2023-06-22T13:57:37;4.90;;;3.75;;
10343;SDS011;5217;43.960;10.954;2023-06-22T14:00:07;4.53;;;4.10;;
10343;SDS011;5217;43.960;10.954;2023-06-22T14:02:38;4.15;;;3.80;;
10343;SDS011;5217;43.960;10.954;2023-06-22T14:05:08;5.78;;;3.75;;
10343;SDS011;5217;43.960;10.954;2023-06-22T14:07:37;5.90;;;3.30;;
10343;SDS011;5217;43.960;10.954;2023-06-22T14:10:06;4.25;;;3.50;;
10343;SDS011;5217;43.960;10.954;2023-06-22T14:12:35;3.80;;;3.50;;
10343;SDS011;5217;43.960;10.954;2023-06-22T14:15:05;3.70;;;3.40;;
10343;SDS011;5217;43.960;10.954;2023-06-22T14:17:35;3.40;;;3.10;;
10343;SDS011;5217;43.960;10.954;2023-06-22T14:20:05;3.42;;;3.10;;
10343;SDS011;5217;43.960;10.954;2023-06-22T14:22:34;4.25;;;3.60;;
10343;SDS011;5217;43.960;10.954;2023-06-22T14:25:04;8.10;;;3.33;;
10343;SDS011;5217;43.960;10.954;2023-06-22T14:27:33;3.97;;;3.25;;
10343;SDS011;5217;43.960;10.954;2023-06-22T14:30:01;3.38;;;3.05;;
10343;SDS011;5217;43.960;10.954;2023-06-22T14:32:32;3.25;;;3.03;;
10343;SDS011;5217;43.960;10.954;2023-06-22T14:35:02;6.90;;;3.33;;
10343;SDS011;5217;43.960;10.954;2023-06-22T14:37:31;3.90;;;3.47;;
10343;SDS011;5217;43.960;10.954;2023-06-22T14:40:00;4.38;;;3.13;;
10343;SDS011;5217;43.960;10.954;2023-06-22T14:42:28;3.90;;;3.50;;
10343;SDS011;5217;43.960;10.954;2023-06-22T14:44:57;4.95;;;3.22;;
10343;SDS011;5217;43.960;10.954;2023-06-22T14:47:26;3.38;;;2.92;;
10343;SDS011;5217;43.960;10.954;2023-06-22T14:49:55;4.03;;;3.20;;
10343;SDS011;5217;43.960;10.954;2023-06-22T14:52:24;6.05;;;3.10;;
10343;SDS011;5217;43.960;10.954;2023-06-22T14:54:53;5.80;;;3.67;;
10343;SDS011;5217;43.960;10.954;2023-06-22T14:57:22;3.75;;;3.22;;
10343;SDS011;5217;43.960;10.954;2023-06-22T14:59:51;4.15;;;3.25;;
10343;SDS011;5217;43.960;10.954;2023-06-22T15:02:19;4.05;;;3.25;;